createdAt,value
2019-05-11T00:02:07.983Z,69.90
2019-05-11T00:04:34.245Z,70.10
2019-05-11T00:07:00.448Z,70.20
2019-05-11T00:09:26.761Z,70.30
2019-05-11T00:11:52.991Z,70.40
2019-05-11T00:14:19.220Z,70.50
2019-05-11T00:16:45.460Z,70.50
2019-05-11T00:19:11.867Z,70.50
2019-05-11T00:21:38.294Z,70.60
2019-05-11T00:24:04.609Z,70.70
2019-05-11T00:26:30.910Z,70.80
2019-05-11T00:28:57.090Z,70.90
2019-05-11T00:31:23.408Z,71.00
2019-05-11T00:33:49.891Z,71.00
2019-05-11T00:36:16.131Z,70.90
2019-05-11T00:38:42.457Z,70.90
2019-05-11T00:41:08.914Z,70.90
2019-05-11T00:43:35.155Z,70.90
2019-05-11T00:46:01.529Z,70.90
2019-05-11T00:48:27.875Z,70.90
2019-05-11T00:50:54.160Z,71.00
2019-05-11T00:53:20.396Z,71.00
2019-05-11T00:55:46.911Z,71.20
2019-05-11T00:58:13.136Z,71.20
2019-05-11T01:00:39.571Z,71.20
2019-05-11T01:03:05.847Z,71.10
2019-05-11T01:05:32.555Z,71.20
2019-05-11T01:07:58.882Z,71.00
2019-05-11T01:10:40.784Z,71.00
2019-05-11T01:12:53.272Z,70.90
2019-05-11T01:15:19.878Z,70.90
2019-05-11T01:17:46.122Z,70.80
2019-05-11T01:20:12.829Z,70.90
2019-05-11T01:22:39.177Z,71.00
2019-05-11T01:25:05.642Z,71.00
2019-05-11T01:27:31.907Z,71.00
2019-05-11T01:29:58.287Z,71.00
2019-05-11T01:32:24.517Z,70.90
2019-05-11T01:34:50.726Z,71.00
2019-05-11T01:37:16.983Z,70.90
2019-05-11T01:39:43.159Z,70.90
2019-05-11T01:42:09.465Z,71.10
2019-05-11T01:44:35.709Z,71.10
2019-05-11T01:47:01.979Z,71.90
2019-05-11T01:49:28.486Z,71.30
2019-05-11T01:51:54.729Z,71.30
2019-05-11T01:54:21.621Z,71.40
2019-05-11T01:56:47.855Z,71.40
2019-05-11T01:59:14.238Z,72.10
2019-05-11T02:01:40.745Z,71.50
2019-05-11T02:04:07.038Z,71.50
2019-05-11T02:06:33.357Z,71.40
2019-05-11T02:08:59.690Z,71.50
2019-05-11T02:11:25.924Z,71.40
2019-05-11T02:13:52.518Z,71.40
2019-05-11T02:16:18.936Z,71.50
2019-05-11T02:18:45.420Z,71.50
2019-05-11T02:21:11.933Z,71.40
2019-05-11T02:23:38.319Z,71.40
2019-05-11T02:26:04.740Z,71.30
2019-05-11T02:28:31.150Z,71.30
2019-05-11T02:30:57.714Z,71.40
2019-05-11T02:33:24.044Z,71.40
2019-05-11T02:35:50.447Z,71.50
2019-05-11T02:38:16.838Z,71.30
2019-05-11T02:40:43.265Z,71.40
2019-05-11T02:43:09.489Z,71.60
2019-05-11T02:48:13.960Z,71.50
2019-05-11T02:50:58.891Z,71.70
2019-05-11T02:53:45.542Z,71.90
2019-05-11T02:56:30.192Z,71.90
2019-05-11T02:59:14.894Z,71.80
2019-05-11T03:01:59.805Z,71.80
2019-05-11T03:04:44.641Z,71.90
2019-05-11T03:07:29.496Z,71.90
2019-05-11T03:10:14.606Z,71.80
2019-05-11T03:12:59.247Z,71.70
2019-05-11T03:15:44.217Z,71.80
2019-05-11T03:18:29.053Z,71.80
2019-05-11T03:21:13.920Z,71.70
2019-05-11T03:23:58.735Z,71.80
2019-05-11T03:26:43.660Z,71.70
2019-05-11T03:29:28.749Z,71.70
2019-05-11T03:32:13.412Z,71.70
2019-05-11T03:34:58.343Z,71.60
2019-05-11T03:37:44.347Z,71.80
2019-05-11T03:40:29.525Z,71.70
2019-05-11T03:43:14.037Z,71.70
2019-05-11T03:45:59.012Z,71.70
2019-05-11T03:48:43.705Z,71.60
2019-05-11T03:51:28.863Z,71.60
2019-05-11T03:54:14.052Z,71.70
2019-05-11T03:56:58.926Z,72.10
2019-05-11T03:59:44.393Z,71.90
2019-05-11T04:02:29.550Z,71.80
2019-05-11T04:05:14.209Z,71.70
2019-05-11T04:07:59.042Z,71.60
2019-05-11T04:10:43.738Z,71.60
2019-05-11T04:13:28.672Z,71.70
2019-05-11T04:16:13.486Z,71.50
2019-05-11T04:18:58.513Z,71.60
2019-05-11T04:21:43.428Z,71.70
2019-05-11T04:24:28.491Z,71.70
2019-05-11T04:27:13.338Z,71.60
2019-05-11T04:29:58.639Z,71.70
2019-05-11T04:32:43.681Z,71.70
2019-05-11T04:35:28.634Z,71.70
2019-05-11T04:38:13.322Z,71.80
2019-05-11T04:40:58.294Z,71.90
2019-05-11T04:43:43.367Z,72.00
2019-05-11T04:46:27.971Z,72.10
2019-05-11T04:49:12.990Z,72.00
2019-05-11T04:51:57.844Z,72.00
2019-05-11T04:54:42.813Z,72.20
2019-05-11T04:57:27.769Z,72.10
2019-05-11T05:00:12.999Z,72.10
2019-05-11T05:02:57.723Z,72.10
2019-05-11T05:05:42.479Z,72.10
2019-05-11T05:08:28.091Z,72.00
2019-05-11T05:11:13.492Z,72.20
2019-05-11T05:14:02.219Z,72.00
2019-05-11T05:16:45.509Z,71.90
2019-05-11T05:19:30.219Z,71.80
2019-05-11T05:22:15.251Z,71.80
2019-05-11T05:24:59.958Z,71.80
2019-05-11T05:27:45.163Z,71.70
2019-05-11T05:30:30.170Z,71.80
2019-05-11T05:33:15.146Z,71.80
2019-05-11T05:35:59.733Z,72.00
2019-05-11T05:38:44.671Z,72.00
2019-05-11T05:41:29.375Z,72.10
2019-05-11T05:44:14.297Z,72.10
2019-05-11T05:46:59.078Z,72.00
2019-05-11T05:49:43.944Z,72.00
2019-05-11T05:52:29.042Z,71.90
2019-05-11T05:55:13.859Z,71.80
2019-05-11T05:57:58.993Z,71.70
2019-05-11T06:00:43.723Z,71.30
2019-05-11T06:03:28.630Z,71.20
2019-05-11T06:06:13.602Z,71.40
2019-05-11T06:08:58.315Z,71.50
2019-05-11T06:11:43.356Z,71.30
2019-05-11T06:14:28.371Z,71.30
2019-05-11T06:17:13.476Z,70.90
2019-05-11T06:19:58.317Z,71.00
2019-05-11T06:22:43.394Z,71.00
2019-05-11T06:25:28.371Z,70.90
2019-05-11T06:28:13.251Z,70.80
2019-05-11T06:30:58.012Z,70.60
2019-05-11T06:33:43.190Z,70.50
2019-05-11T06:36:28.635Z,70.50
2019-05-11T06:39:13.380Z,70.40
2019-05-11T06:41:58.795Z,70.20
2019-05-11T06:44:43.402Z,68.80
2019-05-11T06:47:28.082Z,68.80
2019-05-11T06:50:13.550Z,68.20
2019-05-11T06:52:59.502Z,68.00
2019-05-11T06:55:43.860Z,68.20
2019-05-11T06:58:28.609Z,68.20
2019-05-11T07:01:13.161Z,67.90
2019-05-11T07:03:58.078Z,67.50
2019-05-11T07:06:43.518Z,67.40
2019-05-11T07:09:29.405Z,67.30
2019-05-11T07:12:15.514Z,67.10
2019-05-11T07:15:00.418Z,67.10
2019-05-11T07:17:45.483Z,67.20
2019-05-11T07:20:30.389Z,67.20
2019-05-11T07:23:15.330Z,67.00
2019-05-11T07:26:01.412Z,66.80
2019-05-11T07:28:46.121Z,66.50
2019-05-11T07:31:30.972Z,66.30
2019-05-11T07:34:18.488Z,65.70
2019-05-11T07:37:03.591Z,65.60
2019-05-11T07:39:51.302Z,65.40
2019-05-11T07:42:37.896Z,64.80
2019-05-11T07:45:22.356Z,64.50
2019-05-11T07:48:08.041Z,64.00
2019-05-11T07:50:53.043Z,63.60
2019-05-11T07:53:38.232Z,63.70
2019-05-11T07:56:22.845Z,63.80
2019-05-11T07:59:08.091Z,63.80
2019-05-11T08:01:53.322Z,63.30
2019-05-11T08:04:38.056Z,63.20
2019-05-11T08:07:23.210Z,63.40
2019-05-11T08:10:08.486Z,63.30
2019-05-11T08:12:53.438Z,63.20
2019-05-11T08:15:38.406Z,63.10
2019-05-11T08:18:23.714Z,62.50
2019-05-11T08:21:08.999Z,63.00
2019-05-11T08:23:54.038Z,61.60
2019-05-11T08:26:39.450Z,61.80
2019-05-11T08:29:24.854Z,62.00
2019-05-11T08:32:10.075Z,61.40
2019-05-11T08:34:54.665Z,60.90
2019-05-11T08:37:39.514Z,60.70
2019-05-11T08:40:24.493Z,60.90
2019-05-11T08:43:17.897Z,60.20
2019-05-11T08:46:02.507Z,60.40
2019-05-11T08:48:47.982Z,60.30
2019-05-11T08:51:33.345Z,60.20
2019-05-11T08:54:18.416Z,59.60
2019-05-11T08:57:03.724Z,60.00
2019-05-11T08:59:48.656Z,60.00
2019-05-11T09:02:34.163Z,60.70
2019-05-11T09:05:19.118Z,60.60
2019-05-11T09:08:04.193Z,59.60
2019-05-11T09:10:49.311Z,59.80
2019-05-11T09:13:34.530Z,59.50
2019-05-11T09:16:19.493Z,59.10
2019-05-11T09:19:04.451Z,59.60
2019-05-11T09:21:49.173Z,58.70
2019-05-11T09:24:34.366Z,58.30
2019-05-11T09:27:19.607Z,58.10
2019-05-11T09:30:08.310Z,58.00
2019-05-11T09:32:53.180Z,58.30
2019-05-11T09:35:47.650Z,57.80
2019-05-11T09:38:24.883Z,57.50
2019-05-11T09:41:12.159Z,57.40
2019-05-11T09:43:58.492Z,57.30
2019-05-11T09:46:43.370Z,57.60
2019-05-11T09:49:42.935Z,56.50
2019-05-11T09:52:15.417Z,56.30
2019-05-11T09:55:00.864Z,56.00
2019-05-11T09:57:45.712Z,56.10
2019-05-11T10:00:31.868Z,56.60
2019-05-11T10:03:18.656Z,55.80
2019-05-11T10:06:08.171Z,56.70
2019-05-11T10:08:52.499Z,56.90
2019-05-11T10:11:39.852Z,56.90
2019-05-11T10:14:24.761Z,56.50
2019-05-11T10:17:09.754Z,56.00
2019-05-11T10:19:54.552Z,55.90
2019-05-11T10:22:39.153Z,56.40
2019-05-11T10:25:24.241Z,57.10
2019-05-11T10:28:09.212Z,55.40
2019-05-11T10:30:54.413Z,55.80
2019-05-11T10:33:39.278Z,55.10
2019-05-11T10:36:24.181Z,55.10
2019-05-11T10:39:08.981Z,55.40
2019-05-11T10:41:54.201Z,55.30
2019-05-11T10:44:39.455Z,54.00
2019-05-11T10:47:24.925Z,52.80
2019-05-11T10:50:10.658Z,53.70
2019-05-11T10:52:55.442Z,54.70
2019-05-11T10:55:39.944Z,54.80
2019-05-11T10:58:24.618Z,53.80
2019-05-11T11:01:09.268Z,53.80
2019-05-11T11:03:53.781Z,53.00
2019-05-11T11:06:38.784Z,52.70
2019-05-11T11:09:23.617Z,52.70
2019-05-11T11:12:08.346Z,53.50
2019-05-11T11:14:53.014Z,54.20
2019-05-11T11:17:38.387Z,52.90
2019-05-11T11:20:23.387Z,51.70
2019-05-11T11:23:08.804Z,51.70
2019-05-11T11:25:53.899Z,51.30
2019-05-11T11:28:38.514Z,51.60
2019-05-11T11:31:23.560Z,52.40
2019-05-11T11:34:08.394Z,52.20
2019-05-11T11:36:53.227Z,53.30
2019-05-11T11:39:38.801Z,52.60
2019-05-11T11:42:23.606Z,51.40
2019-05-11T11:45:08.754Z,51.40
2019-05-11T11:47:53.379Z,56.70
2019-05-11T11:50:38.113Z,54.10
2019-05-11T11:53:23.250Z,49.00
2019-05-11T11:56:08.486Z,47.60
2019-05-11T11:58:54.150Z,45.50
2019-05-11T12:01:39.217Z,45.60
2019-05-11T12:04:23.920Z,46.50
2019-05-11T12:07:08.790Z,49.30
2019-05-11T12:09:53.454Z,50.20
2019-05-11T12:12:38.734Z,48.40
2019-05-11T12:15:23.539Z,43.50
2019-05-11T12:18:08.640Z,41.30
2019-05-11T12:20:53.514Z,44.60
2019-05-11T12:23:38.722Z,43.60
2019-05-11T12:26:23.429Z,45.60
2019-05-11T12:29:08.740Z,43.30
2019-05-11T12:31:54.126Z,40.40
2019-05-11T12:34:39.237Z,39.60
2019-05-11T12:37:24.401Z,40.00
2019-05-11T12:40:10.622Z,42.50
2019-05-11T12:42:55.844Z,41.70
2019-05-11T12:45:40.721Z,40.70
2019-05-11T12:48:28.343Z,41.80
2019-05-11T12:51:13.338Z,40.70
2019-05-11T12:54:00.024Z,41.30
2019-05-11T12:56:45.245Z,44.30
2019-05-11T12:59:30.095Z,46.80
2019-05-11T13:02:14.973Z,45.00
2019-05-11T13:05:02.375Z,40.50
2019-05-11T13:07:48.182Z,38.00
2019-05-11T13:10:33.694Z,34.20
2019-05-11T13:13:18.407Z,32.50
2019-05-11T13:16:03.602Z,35.80
2019-05-11T13:18:49.367Z,36.40
2019-05-11T13:21:34.407Z,35.10
2019-05-11T13:24:19.380Z,32.30
2019-05-11T13:27:04.689Z,31.40
2019-05-11T13:29:49.855Z,31.20
2019-05-11T13:32:35.270Z,34.80
2019-05-11T13:35:20.210Z,32.00
2019-05-11T13:38:08.722Z,33.10
2019-05-11T13:40:53.972Z,30.50
2019-05-11T13:43:38.840Z,29.40
2019-05-11T13:46:23.680Z,28.00
2019-05-11T13:49:08.750Z,29.50
2019-05-11T13:51:53.997Z,29.90
2019-05-11T13:54:38.771Z,28.10
2019-05-11T13:57:23.856Z,30.10
2019-05-11T14:00:10.013Z,30.60
2019-05-11T14:02:58.441Z,29.80
2019-05-11T14:05:43.538Z,29.10
2019-05-11T14:08:28.174Z,27.90
2019-05-11T14:11:13.127Z,28.40
2019-05-11T14:13:58.527Z,29.00
2019-05-11T14:16:43.844Z,29.00
2019-05-11T14:19:29.261Z,28.10
2019-05-11T14:22:14.239Z,28.60
2019-05-11T14:24:59.540Z,28.90
2019-05-11T14:27:44.318Z,28.50
2019-05-11T14:30:29.255Z,29.50
2019-05-11T14:33:14.013Z,30.20
2019-05-11T14:35:58.718Z,30.90
2019-05-11T14:38:43.531Z,30.90
2019-05-11T14:41:28.636Z,31.50
2019-05-11T14:44:13.668Z,32.20
2019-05-11T14:46:59.230Z,32.20
2019-05-11T14:49:44.410Z,32.30
2019-05-11T14:52:29.226Z,32.30
2019-05-11T14:55:14.013Z,33.10
2019-05-11T14:57:58.799Z,33.90
2019-05-11T15:00:43.817Z,34.70
2019-05-11T15:03:28.820Z,34.90
2019-05-11T15:06:13.975Z,35.20
2019-05-11T15:08:59.215Z,35.10
2019-05-11T15:11:43.933Z,35.10
2019-05-11T15:14:28.984Z,35.60
2019-05-11T15:17:14.316Z,35.40
2019-05-11T15:19:59.071Z,35.80
2019-05-11T15:22:44.108Z,36.30
2019-05-11T15:25:29.400Z,36.30
2019-05-11T15:28:14.322Z,36.20
2019-05-11T15:30:59.307Z,36.80
2019-05-11T15:33:44.833Z,36.50
2019-05-11T15:36:29.652Z,36.50
2019-05-11T15:39:14.692Z,36.80
2019-05-11T15:42:09.177Z,36.90
2019-05-11T15:44:48.326Z,36.80
2019-05-11T15:47:32.991Z,37.30
2019-05-11T15:50:19.186Z,37.60
2019-05-11T15:53:05.205Z,37.90
2019-05-11T15:55:49.986Z,38.00
2019-05-11T15:58:34.954Z,37.40
2019-05-11T16:01:19.913Z,38.10
2019-05-11T16:04:04.715Z,38.00
2019-05-11T16:06:49.522Z,38.80
2019-05-11T16:09:34.360Z,38.20
2019-05-11T16:12:19.432Z,38.10
2019-05-11T16:15:08.687Z,38.30
2019-05-11T16:17:53.486Z,38.50
2019-05-11T16:20:38.029Z,38.40
2019-05-11T16:23:22.537Z,38.40
2019-05-11T16:26:08.514Z,38.50
2019-05-11T16:28:53.550Z,38.50
2019-05-11T16:31:38.302Z,38.50
2019-05-11T16:34:23.910Z,38.50
2019-05-11T16:37:10.146Z,38.20
2019-05-11T16:39:58.213Z,38.30
2019-05-11T16:42:42.716Z,38.60
2019-05-11T16:45:28.227Z,38.80
2019-05-11T16:48:13.457Z,38.80
2019-05-11T16:50:58.212Z,39.10
2019-05-11T16:53:43.161Z,38.80
2019-05-11T16:56:27.874Z,38.80
2019-05-11T16:59:12.885Z,39.40
2019-05-11T17:01:58.615Z,38.80
2019-05-11T17:04:43.551Z,38.40
2019-05-11T17:07:30.037Z,38.50
2019-05-11T17:10:17.962Z,38.80
2019-05-11T17:13:05.921Z,38.70
2019-05-11T17:15:50.763Z,38.90
2019-05-11T17:18:35.743Z,39.20
2019-05-11T17:21:20.602Z,39.10
2019-05-11T17:24:05.176Z,39.20
2019-05-11T17:26:50.062Z,39.30
2019-05-11T17:29:34.902Z,39.30
2019-05-11T17:32:19.813Z,38.90
2019-05-11T17:35:08.292Z,38.80
2019-05-11T17:37:53.240Z,38.80
2019-05-11T17:40:38.207Z,39.30
2019-05-11T17:43:23.241Z,39.40
2019-05-11T17:46:08.267Z,39.60
2019-05-11T17:48:53.695Z,40.10
2019-05-11T17:51:38.620Z,40.20
2019-05-11T17:54:23.788Z,40.70
2019-05-11T17:57:08.882Z,40.90
2019-05-11T17:59:54.143Z,41.10
2019-05-11T18:02:39.265Z,41.40
2019-05-11T18:05:24.561Z,41.40
2019-05-11T18:08:09.524Z,41.60
2019-05-11T18:10:54.428Z,41.80
2019-05-11T18:13:39.423Z,42.30
2019-05-11T18:16:23.896Z,42.30
2019-05-11T18:19:09.184Z,42.50
2019-05-11T18:21:53.742Z,42.80
2019-05-11T18:24:39.129Z,43.20
2019-05-11T18:27:24.369Z,43.30
2019-05-11T18:30:11.081Z,43.30
2019-05-11T18:32:56.018Z,43.20
2019-05-11T18:35:41.223Z,43.50
2019-05-11T18:38:27.605Z,43.70
2019-05-11T18:41:13.302Z,43.80
2019-05-11T18:43:58.593Z,44.00
2019-05-11T18:46:43.863Z,44.30
2019-05-11T18:49:29.097Z,44.40
2019-05-11T18:52:14.319Z,44.60
2019-05-11T18:54:59.354Z,44.70
2019-05-11T18:57:44.337Z,45.00
2019-05-11T19:00:29.641Z,45.20
2019-05-11T19:03:15.372Z,45.50
2019-05-11T19:06:00.153Z,45.60
2019-05-11T19:08:47.678Z,45.80
2019-05-11T19:11:32.028Z,45.80
2019-05-11T19:14:17.292Z,45.90
2019-05-11T19:17:01.928Z,46.10
2019-05-11T19:19:48.602Z,46.20
2019-05-11T19:22:33.614Z,46.40
2019-05-11T19:25:18.660Z,46.50
2019-05-11T19:28:03.384Z,46.50
2019-05-11T19:30:48.836Z,46.90
2019-05-11T19:33:33.965Z,47.00
2019-05-11T19:36:18.928Z,47.00
2019-05-11T19:39:06.044Z,47.30
2019-05-11T19:41:51.235Z,47.50
2019-05-11T19:44:35.980Z,47.60
2019-05-11T19:47:21.208Z,47.80
2019-05-11T19:50:08.573Z,48.00
2019-05-11T19:52:52.869Z,48.20
2019-05-11T19:55:37.619Z,48.20
2019-05-11T19:58:22.593Z,48.40
2019-05-11T20:01:08.691Z,48.60
2019-05-11T20:03:54.080Z,48.60
2019-05-11T20:06:39.230Z,48.80
2019-05-11T20:09:23.777Z,48.80
2019-05-11T20:12:08.836Z,49.00
2019-05-11T20:14:53.593Z,49.10
2019-05-11T20:17:39.187Z,49.30
2019-05-11T20:20:24.433Z,49.40
2019-05-11T20:23:09.259Z,49.50
2019-05-11T20:25:54.573Z,49.40
2019-05-11T20:28:39.247Z,49.70
2019-05-11T20:31:24.179Z,49.70
2019-05-11T20:34:09.026Z,49.80
2019-05-11T20:36:53.894Z,49.90
2019-05-11T20:39:38.983Z,50.00
2019-05-11T20:42:23.865Z,50.30
2019-05-11T20:45:09.096Z,50.40
2019-05-11T20:47:53.659Z,50.40
2019-05-11T20:50:38.755Z,50.60
2019-05-11T20:53:23.716Z,50.70
2019-05-11T20:56:08.711Z,50.80
2019-05-11T20:58:54.958Z,50.90
2019-05-11T21:01:39.677Z,50.80
2019-05-11T21:04:24.675Z,51.00
2019-05-11T21:07:09.611Z,51.20
2019-05-11T21:09:54.636Z,51.30
2019-05-11T21:12:39.498Z,51.50
2019-05-11T21:15:24.385Z,51.70
2019-05-11T21:18:09.285Z,51.80
2019-05-11T21:20:54.172Z,52.80
2019-05-11T21:23:40.672Z,53.20
2019-05-11T21:26:28.046Z,53.30
2019-05-11T21:29:12.171Z,53.30
2019-05-11T21:31:59.018Z,53.70
2019-05-11T21:34:43.590Z,53.70
2019-05-11T21:37:28.822Z,53.90
2019-05-11T21:40:14.052Z,54.10
2019-05-11T21:42:59.207Z,54.20
2019-05-11T21:45:44.076Z,54.30
2019-05-11T21:48:29.065Z,54.30
2019-05-11T21:51:13.969Z,54.50
2019-05-11T21:53:59.114Z,54.50
2019-05-11T21:56:57.828Z,54.50
2019-05-11T21:59:42.691Z,54.80
2019-05-11T22:02:28.711Z,54.70
2019-05-11T22:05:14.148Z,55.10
2019-05-11T22:07:59.111Z,55.20
2019-05-11T22:10:44.022Z,55.30
2019-05-11T22:13:28.984Z,55.50
2019-05-11T22:16:13.928Z,55.60
2019-05-11T22:18:58.741Z,55.90
2019-05-11T22:21:43.701Z,56.00
2019-05-11T22:24:28.514Z,56.20
2019-05-11T22:27:13.544Z,56.40
2019-05-11T22:29:58.988Z,56.70
2019-05-11T22:32:44.511Z,56.70
2019-05-11T22:35:29.180Z,56.40
2019-05-11T22:38:14.455Z,56.90
2019-05-11T22:40:59.158Z,57.00
2019-05-11T22:43:44.137Z,57.20
2019-05-11T22:46:29.094Z,57.30
2019-05-11T22:49:14.074Z,57.40
2019-05-11T22:51:59.861Z,57.80
2019-05-11T22:54:44.852Z,57.90
2019-05-11T22:57:29.778Z,58.00
2019-05-11T23:00:18.482Z,58.10
2019-05-11T23:03:03.474Z,58.20
2019-05-11T23:05:48.453Z,58.20
2019-05-11T23:08:33.245Z,58.30
2019-05-11T23:11:18.306Z,58.40
2019-05-11T23:14:03.130Z,58.70
2019-05-11T23:16:49.926Z,58.90
2019-05-11T23:19:34.996Z,58.90
2019-05-11T23:22:19.861Z,58.90
2019-05-11T23:25:04.936Z,59.00
2019-05-11T23:27:49.883Z,59.10
2019-05-11T23:30:34.689Z,59.70
2019-05-11T23:33:19.626Z,59.70
2019-05-11T23:36:04.548Z,59.70
2019-05-11T23:38:49.917Z,59.80
2019-05-11T23:41:34.569Z,59.80
2019-05-11T23:44:19.612Z,60.70
2019-05-11T23:47:04.495Z,60.10
2019-05-11T23:49:49.352Z,60.30
2019-05-11T23:52:34.432Z,60.20
2019-05-11T23:55:19.551Z,60.20
2019-05-11T23:58:04.209Z,60.20
